Time;durP1;ratioP1;P1;durP2;ratioP2;P2;SDS_P1;SDS_P2;PMS_P1;PMS_P2;Temp;Humidity;BMP_temperature;BMP_pressure;BME280_temperature;BME280_humidity;BME280_pressure;Samples;Min_cycle;Max_cycle;Signal;HPM_P1;HPM_P2
2022/01/24 00:01:04;;;;;;;16.33;10.20;;;;;;;-7.67;100.00;93605.47;5071443;28;20060;-88
2022/01/24 00:03:31;;;;;;;18.35;10.93;;;;;;;-7.43;100.00;93607.41;5071218;28;20048;-87
2022/01/24 00:05:58;;;;;;;18.40;12.32;;;;;;;-7.07;100.00;93612.78;5071058;28;20388;-89
2022/01/24 00:08:28;;;;;;;18.95;12.60;;;;;;;-6.90;100.00;93614.25;5071415;28;20063;-87
2022/01/24 00:11:05;;;;;;;15.02;10.73;;;;;;;-7.13;100.00;93576.50;5071372;28;20140;-87
2022/01/24 00:14:17;;;;;;;18.73;11.10;;;;;;;-6.75;100.00;93602.50;5069950;28;20097;-89
2022/01/24 00:16:47;;;;;;;23.25;13.32;;;;;;;-6.50;100.00;93603.50;5066967;28;20051;-87
2022/01/24 00:27:34;;;;;;;16.67;11.27;;;;;;;-5.84;100.00;93616.84;5068830;28;20047;-87
2022/01/24 00:30:00;;;;;;;17.38;10.95;;;;;;;-5.94;100.00;93619.94;5069622;28;20044;-88
2022/01/24 00:32:27;;;;;;;17.17;10.93;;;;;;;-5.94;100.00;93624.13;5069409;28;20064;-88
2022/01/24 00:34:54;;;;;;;19.05;12.88;;;;;;;-5.86;100.00;93618.63;5069526;28;20047;-88
2022/01/24 00:37:21;;;;;;;18.55;11.77;;;;;;;-5.91;100.00;93597.25;5069703;28;20060;-88
2022/01/24 00:39:49;;;;;;;17.23;11.55;;;;;;;-5.74;100.00;93625.34;5069406;28;20048;-89
2022/01/24 00:42:26;;;;;;;15.73;11.43;;;;;;;-5.67;100.00;93621.56;5070133;28;20041;-88
2022/01/24 00:45:06;;;;;;;16.83;10.38;;;;;;;-5.59;100.00;93625.25;5051111;28;20107;-88
2022/01/24 00:47:49;;;;;;;19.08;10.95;;;;;;;-5.56;100.00;93627.56;5069759;28;20048;-89
2022/01/24 00:53:12;;;;;;;14.18;9.10;;;;;;;-5.45;100.00;93629.34;5035702;28;20371;-88
2022/01/24 00:55:45;;;;;;;13.60;9.43;;;;;;;-5.41;100.00;93624.00;5066536;28;20519;-88
2022/01/24 00:58:12;;;;;;;14.30;9.07;;;;;;;-5.33;100.00;93631.00;5071325;28;20135;-89
2022/01/24 01:00:40;;;;;;;14.77;9.73;;;;;;;-5.29;100.00;93629.09;5067436;28;20495;-89
2022/01/24 01:03:07;;;;;;;15.40;9.90;;;;;;;-5.41;100.00;93606.50;5069083;28;20102;-88
2022/01/24 01:05:50;;;;;;;14.68;9.27;;;;;;;-5.47;100.00;93626.16;5069137;28;20125;-87
2022/01/24 01:19:27;;;;;;;21.92;14.75;;;;;;;-5.65;100.00;93634.75;5067445;28;20399;-89
2022/01/24 01:21:55;;;;;;;30.38;16.58;;;;;;;-5.77;100.00;93603.84;5069170;28;20052;-88
2022/01/24 01:24:23;;;;;;;31.67;18.38;;;;;;;-5.58;100.00;93627.66;5069477;28;20045;-89
2022/01/24 01:27:02;;;;;;;38.70;21.95;;;;;;;-5.52;100.00;93631.44;5069180;28;20449;-88
2022/01/24 01:29:34;;;;;;;26.15;15.90;;;;;;;-5.51;100.00;93628.06;5067836;28;20422;-88
2022/01/24 01:32:11;;;;;;;20.75;14.10;;;;;;;-5.44;100.00;93634.25;5067026;28;20122;-89
2022/01/24 01:40:25;;;;;;;23.25;13.75;;;;;;;-5.42;100.00;93622.41;5047594;28;20103;-90
2022/01/24 01:57:12;;;;;;;26.73;16.58;;;;;;;-5.53;100.00;93620.63;5022398;28;20053;-91
2022/01/24 01:59:40;;;;;;;36.55;18.85;;;;;;;-5.51;100.00;93616.31;5053743;28;20095;-90
2022/01/24 02:02:12;;;;;;;40.00;19.13;;;;;;;-5.61;100.00;93622.84;5054211;28;20442;-89
2022/01/24 02:04:40;;;;;;;35.28;15.50;;;;;;;-5.80;100.00;93614.03;5053862;28;20041;-88
2022/01/24 02:07:14;;;;;;;30.73;14.90;;;;;;;-5.85;100.00;93603.53;5053891;28;20056;-89
2022/01/24 02:09:45;;;;;;;35.60;15.93;;;;;;;-5.64;100.00;93620.56;5053898;28;20087;-89
2022/01/24 02:12:17;;;;;;;29.70;14.98;;;;;;;-5.79;100.00;93622.34;5054163;28;20045;-88
2022/01/24 02:14:51;;;;;;;38.30;17.50;;;;;;;-5.68;100.00;93606.63;5056111;28;20176;-89
2022/01/24 02:17:26;;;;;;;31.30;15.95;;;;;;;-5.50;100.00;93619.63;5064822;28;20127;-88
2022/01/24 02:20:10;;;;;;;29.73;13.60;;;;;;;-5.72;100.00;93595.22;5072212;28;20064;-89
2022/01/24 02:22:44;;;;;;;34.78;16.95;;;;;;;-5.57;100.00;93620.94;5061993;28;20459;-89
2022/01/24 02:25:24;;;;;;;38.15;17.88;;;;;;;-5.57;100.00;93623.44;5053312;28;20049;-89
2022/01/24 02:27:56;;;;;;;51.72;22.13;;;;;;;-5.83;100.00;93631.75;5053161;28;20468;-89
2022/01/24 02:30:54;;;;;;;28.73;14.70;;;;;;;-6.11;100.00;93625.25;5053070;28;20041;-89
2022/01/24 02:33:23;;;;;;;27.55;13.60;;;;;;;-6.37;100.00;93631.03;5053321;28;20399;-89
2022/01/24 02:35:53;;;;;;;21.13;13.13;;;;;;;-6.74;100.00;93625.81;5053154;28;20052;-90
2022/01/24 02:38:35;;;;;;;18.08;11.02;;;;;;;-7.29;100.00;93629.06;5053391;28;20098;-89
2022/01/24 02:49:17;;;;;;;22.60;13.80;;;;;;;-7.88;100.00;93634.13;5052819;28;20064;-88
2022/01/24 02:51:47;;;;;;;20.48;12.95;;;;;;;-8.06;100.00;93640.06;5053179;28;20049;-88
2022/01/24 02:54:20;;;;;;;17.92;11.93;;;;;;;-7.98;100.00;93633.84;5052840;28;20099;-88
2022/01/24 02:56:47;;;;;;;17.10;11.45;;;;;;;-8.06;100.00;93637.56;5052648;28;20053;-88
2022/01/24 02:59:14;;;;;;;17.13;10.43;;;;;;;-8.02;100.00;93647.38;5052609;28;20049;-87
2022/01/24 03:01:41;;;;;;;19.52;12.90;;;;;;;-7.95;100.00;93644.47;5052848;28;20056;-90
2022/01/24 03:04:08;;;;;;;15.68;10.35;;;;;;;-7.95;100.00;93654.44;5051469;28;20056;-87
2022/01/24 03:06:37;;;;;;;16.52;10.82;;;;;;;-7.97;100.00;93650.44;5052342;28;20076;-87
2022/01/24 03:09:04;;;;;;;24.08;15.80;;;;;;;-7.78;100.00;93648.47;5052340;28;20053;-88
2022/01/24 03:11:55;;;;;;;21.17;12.45;;;;;;;-7.66;100.00;93654.47;5052456;28;20059;-89
2022/01/24 03:14:24;;;;;;;21.90;13.85;;;;;;;-7.51;100.00;93649.47;5052552;28;20115;-89
2022/01/24 03:16:55;;;;;;;20.17;12.70;;;;;;;-7.27;100.00;93652.22;5052462;28;20067;-89
2022/01/24 03:19:27;;;;;;;16.63;10.68;;;;;;;-7.11;100.00;93657.13;5052198;28;20044;-88
2022/01/24 03:21:54;;;;;;;18.30;11.98;;;;;;;-6.98;100.00;93652.16;5052132;28;20136;-88
2022/01/24 03:24:21;;;;;;;18.48;13.15;;;;;;;-6.86;100.00;93660.63;5052051;28;20056;-90
2022/01/24 03:26:50;;;;;;;15.75;11.50;;;;;;;-6.85;100.00;93661.44;5052133;28;20095;-89
2022/01/24 03:29:20;;;;;;;13.70;9.60;;;;;;;-7.37;100.00;93588.75;5052394;28;20073;-88
2022/01/24 03:31:47;;;;;;;14.25;9.35;;;;;;;-7.18;100.00;93655.06;5051815;28;20060;-89
2022/01/24 03:34:15;;;;;;;14.40;9.75;;;;;;;-7.68;100.00;93635.47;5051926;28;20049;-89
2022/01/24 03:36:48;;;;;;;13.32;9.32;;;;;;;-7.74;100.00;93665.78;5052147;28;20049;-89
2022/01/24 03:39:15;;;;;;;14.75;9.93;;;;;;;-7.86;100.00;93680.53;5051991;28;20055;-90
2022/01/24 03:41:42;;;;;;;15.73;10.23;;;;;;;-7.97;100.00;93677.84;5051791;28;20049;-89
2022/01/24 03:44:12;;;;;;;17.63;11.82;;;;;;;-7.95;100.00;93676.88;5051960;28;20389;-89
2022/01/24 03:47:00;;;;;;;16.80;11.07;;;;;;;-7.87;100.00;93668.94;5051703;28;20095;-89
2022/01/24 04:28:18;;;;;;;19.23;10.40;;;;;;;-6.69;100.00;93665.47;4759758;30;20230;-88
2022/01/24 04:41:11;;;;;;;;;;;;;;;;;;;;;
2022/01/24 05:00:23;;;;;;;15.80;9.50;;;;;;;-9.60;100.00;93590.97;4750314;30;20247;-88
2022/01/24 05:11:10;;;;;;;16.08;10.15;;;;;;;-9.68;100.00;93617.94;4929046;29;20091;-87
2022/01/24 05:24:10;;;;;;;18.55;10.38;;;;;;;-8.66;100.00;93758.75;5052495;28;20079;-89
2022/01/24 05:30:19;;;;;;;22.55;13.10;;;;;;;-9.09;100.00;93696.25;5006472;28;20132;-90
2022/01/24 05:40:13;;;;;;;30.75;14.68;;;;;;;-9.03;100.00;93741.53;4969594;28;20045;-93
2022/01/24 05:43:37;;;;;;;23.25;12.50;;;;;;;-9.89;100.00;93599.91;5056090;28;20049;-88
2022/01/24 05:46:33;;;;;;;14.27;9.50;;;;;;;-8.74;100.00;93795.72;4969606;28;20062;-89
2022/01/24 05:56:01;;;;;;;18.08;10.95;;;;;;;-9.59;100.00;93644.03;5049095;28;20049;-89
2022/01/24 06:01:55;;;;;;;18.13;10.82;;;;;;;-9.43;100.00;93739.38;5054349;28;20056;-88
2022/01/24 06:23:50;;;;;;;17.73;11.30;;;;;;;-9.10;100.00;93811.59;5036939;28;20056;-91
2022/01/24 06:26:54;;;;;;;;;;;;;;;;;;;;;
2022/01/24 06:33:26;;;;;;;12.50;7.43;;;;;;;-9.89;100.00;93701.81;5055846;28;20051;-91
2022/01/24 06:39:12;;;;;;;;;;;;;;;;;;;;;
2022/01/24 07:03:16;;;;;;;14.75;9.98;;;;;;;-8.57;100.00;93896.19;4863397;29;20068;-91
2022/01/24 07:12:57;;;;;;;15.15;7.97;;;;;;;-9.34;100.00;93747.25;4939331;29;20090;-93
2022/01/24 07:16:01;;;;;;;15.60;7.93;;;;;;;-9.24;100.00;93765.00;4900135;29;20076;-89
2022/01/24 07:31:53;;;;;;;14.30;8.88;;;;;;;-8.69;100.00;93785.50;5009300;28;20053;-90
2022/01/24 07:45:06;;;;;;;18.20;14.05;;;;;;;-8.76;100.00;93795.78;5009169;28;20067;-90
2022/01/24 08:09:12;;;;;;;;;;;;;;;;;;;;;
2022/01/24 09:30:05;;;;;;;11.93;8.25;;;;;;;-7.45;100.00;94035.13;4678795;30;20093;-91
2022/01/24 09:32:35;;;;;;;14.23;8.50;;;;;;;-7.67;99.54;94032.06;4745706;30;20059;-92
2022/01/24 09:35:12;;;;;;;;;;;;;;;;;;;;;
2022/01/24 09:37:47;;;;;;;15.68;9.75;;;;;;;-7.89;99.54;93987.44;5002068;28;20053;-89
2022/01/24 09:40:15;;;;;;;14.27;8.88;;;;;;;-7.70;99.16;94022.22;5035022;28;20045;-92
2022/01/24 09:43:02;;;;;;;;;;;;;;;;;;;;;
2022/01/24 09:45:31;;;;;;;17.48;11.18;;;;;;;-7.89;100.00;93999.09;5035635;28;20049;-87
2022/01/24 09:47:58;;;;;;;23.63;13.63;;;;;;;-7.59;100.00;94020.88;5034096;28;20100;-88
2022/01/24 09:50:31;;;;;;;22.83;12.73;;;;;;;-7.69;100.00;94018.06;5034030;28;20060;-88
2022/01/24 09:52:59;;;;;;;20.20;13.40;;;;;;;-7.91;100.00;94016.66;5034089;28;20056;-88
2022/01/24 09:55:26;;;;;;;26.23;15.75;;;;;;;-7.75;100.00;94033.31;5033836;28;20462;-89
2022/01/24 09:57:54;;;;;;;20.27;13.43;;;;;;;-8.10;100.00;93991.84;5043182;28;20057;-90
2022/01/24 10:00:23;;;;;;;17.25;11.65;;;;;;;-8.09;100.00;94000.91;5058817;28;20033;-88
2022/01/24 10:02:59;;;;;;;26.63;14.10;;;;;;;-7.70;100.00;94033.88;5053894;28;20040;-90
2022/01/24 10:05:30;;;;;;;28.02;15.52;;;;;;;-7.63;100.00;94026.91;5037419;28;20088;-91
2022/01/24 10:08:02;;;;;;;87.72;40.88;;;;;;;-7.68;100.00;94022.16;5033913;28;20091;-92
2022/01/24 10:10:39;;;;;;;20.80;12.40;;;;;;;-7.62;100.00;94006.84;5033654;28;20049;-88
2022/01/24 10:16:35;;;;;;;17.52;11.43;;;;;;;-7.53;100.00;94018.88;5033408;28;20048;-87
2022/01/24 10:19:15;;;;;;;22.73;15.07;;;;;;;-7.62;100.00;94021.00;5033320;28;20056;-86
2022/01/24 10:21:44;;;;;;;26.52;14.43;;;;;;;-7.71;100.00;94022.28;5033722;28;20507;-87
2022/01/24 10:24:14;;;;;;;15.52;9.70;;;;;;;-7.98;100.00;94031.09;5033445;28;20045;-86
2022/01/24 10:26:41;;;;;;;20.15;11.98;;;;;;;-8.05;100.00;94015.63;5034037;28;20519;-88
2022/01/24 10:29:17;;;;;;;16.70;10.75;;;;;;;-7.91;100.00;94009.94;5033478;28;20050;-87
2022/01/24 10:31:48;;;;;;;19.23;11.73;;;;;;;-7.79;97.13;94027.66;5033590;28;20053;-88
2022/01/24 10:34:25;;;;;;;24.50;13.25;;;;;;;-7.87;97.15;94025.56;5033257;28;20104;-88
2022/01/24 10:37:07;;;;;;;;;;;;;;;;;;;;;
2022/01/24 10:39:53;;;;;;;21.83;12.52;;;;;;;-7.91;95.44;94039.88;5032627;28;20049;-88
2022/01/24 10:42:32;;;;;;;21.52;12.52;;;;;;;-7.93;95.55;94043.34;5033362;28;20045;-90
2022/01/24 10:45:02;;;;;;;19.23;10.65;;;;;;;-7.91;94.18;94041.59;5039889;28;20103;-88
2022/01/24 10:47:43;;;;;;;;;;;;;;;;;;;;;
2022/01/24 10:50:22;;;;;;;19.25;10.13;;;;;;;-7.69;91.48;94043.00;5052607;28;20056;-89
2022/01/24 10:52:54;;;;;;;21.95;11.48;;;;;;;-7.56;92.44;94051.44;5052930;28;20049;-91
2022/01/24 10:55:28;;;;;;;22.73;13.20;;;;;;;-7.65;93.32;94010.31;5052871;28;20055;-88
2022/01/24 10:58:16;;;;;;;27.52;13.32;;;;;;;-7.13;92.99;94045.91;5052526;28;20053;-90
2022/01/24 11:00:44;;;;;;;18.15;11.05;;;;;;;-7.43;92.57;94011.69;5052791;28;20053;-87
2022/01/24 11:03:17;;;;;;;19.73;10.65;;;;;;;-7.34;90.69;94064.50;5053416;28;20048;-90
2022/01/24 11:05:47;;;;;;;21.77;12.20;;;;;;;-7.53;90.92;94048.00;5053945;28;20064;-91
2022/01/24 11:08:17;;;;;;;12.48;8.50;;;;;;;-7.41;91.58;94054.84;5052336;28;20041;-91
2022/01/24 11:10:45;;;;;;;19.33;11.70;;;;;;;-7.05;91.91;94049.72;5052527;28;20051;-90
2022/01/24 11:13:19;;;;;;;11.65;7.55;;;;;;;-7.21;90.48;94034.72;5033532;28;20049;-88
2022/01/24 11:15:55;;;;;;;14.63;10.25;;;;;;;-6.80;91.18;94053.38;5065966;28;20492;-90
2022/01/24 11:18:22;;;;;;;13.63;8.85;;;;;;;-7.05;89.43;94003.03;5052583;28;20045;-91
2022/01/24 11:21:05;;;;;;;12.38;8.77;;;;;;;-7.11;90.21;94026.66;5052985;28;20055;-89
2022/01/24 11:23:41;;;;;;;12.23;8.05;;;;;;;-6.91;90.87;94041.47;5054397;28;20036;-88
2022/01/24 11:26:11;;;;;;;16.13;9.50;;;;;;;-6.99;90.95;94036.88;5051174;28;20049;-90
2022/01/24 11:28:38;;;;;;;12.27;8.52;;;;;;;-6.97;89.76;94045.09;5052040;28;20053;-89
2022/01/24 11:31:15;;;;;;;10.52;6.75;;;;;;;-7.16;87.64;94048.59;5052315;28;20492;-89
2022/01/24 11:33:53;;;;;;;13.45;7.35;;;;;;;-7.49;87.64;94036.16;5052362;28;20380;-89
2022/01/24 11:36:36;;;;;;;10.43;7.32;;;;;;;-7.68;87.54;94034.63;5065666;28;20075;-90
2022/01/24 11:39:52;;;;;;;12.10;7.97;;;;;;;-7.61;88.81;94040.91;5074339;28;20044;-88
2022/01/24 11:42:31;;;;;;;14.02;8.82;;;;;;;-7.58;88.06;94025.78;5050245;28;20053;-88
2022/01/24 11:45:04;;;;;;;16.23;9.63;;;;;;;-7.27;87.88;94061.63;5072878;28;20062;-88
2022/01/24 11:47:34;;;;;;;16.00;8.90;;;;;;;-7.17;86.03;94051.16;5071842;28;20544;-91
2022/01/24 11:50:30;;;;;;;14.25;9.27;;;;;;;-7.17;84.70;94053.66;5072396;28;20052;-90
2022/01/24 11:53:21;;;;;;;19.77;10.68;;;;;;;-6.96;85.29;94054.19;5071519;28;20411;-89
2022/01/24 11:55:54;;;;;;;24.42;12.00;;;;;;;-6.96;86.29;94048.41;5071978;28;20091;-90
2022/01/24 11:58:30;;;;;;;21.45;12.48;;;;;;;-6.97;84.08;94052.59;5053966;28;20049;-89
2022/01/24 12:01:04;;;;;;;34.17;18.40;;;;;;;-6.89;86.78;94052.97;5073052;28;20044;-93
2022/01/24 12:03:51;;;;;;;22.08;13.32;;;;;;;-6.82;86.71;94045.16;5072617;28;20056;-90
2022/01/24 12:06:19;;;;;;;14.23;8.88;;;;;;;-6.92;84.95;94052.31;5072699;28;20053;-90
2022/01/24 12:09:01;;;;;;;14.07;9.13;;;;;;;-7.17;86.09;94021.19;5071270;28;20055;-91
2022/01/24 12:11:33;;;;;;;16.27;9.10;;;;;;;-7.53;86.22;93983.13;5071999;28;20058;-92
2022/01/24 12:14:13;;;;;;;19.15;11.52;;;;;;;-6.96;89.59;94038.41;5071803;28;20135;-89
2022/01/24 12:16:42;;;;;;;13.00;7.63;;;;;;;-6.95;86.19;94042.53;5071237;28;20521;-88
2022/01/24 12:19:12;;;;;;;17.33;11.82;;;;;;;-7.37;85.62;94010.56;5071574;28;20049;-93
2022/01/24 12:21:40;;;;;;;19.75;11.00;;;;;;;-7.33;86.78;94028.69;5071964;28;20052;-88
2022/01/24 12:24:10;;;;;;;17.20;10.68;;;;;;;-7.66;88.01;94020.38;5071964;28;20114;-89
2022/01/24 12:26:42;;;;;;;20.00;13.32;;;;;;;-7.69;89.96;94048.00;5072103;28;20045;-89
2022/01/24 12:29:13;;;;;;;15.45;10.07;;;;;;;-7.75;90.36;94045.78;5072578;28;20044;-91
2022/01/24 12:31:58;;;;;;;;;;;;;;;;;;;;;
2022/01/24 12:34:38;;;;;;;13.95;8.82;;;;;;;-8.05;93.91;94059.72;5090551;28;20083;-90
2022/01/24 12:37:08;;;;;;;14.38;10.77;;;;;;;-7.96;95.63;94059.25;5091617;28;20056;-90
2022/01/24 12:39:46;;;;;;;19.13;12.50;;;;;;;-7.98;94.88;94067.69;5084636;28;20090;-89
2022/01/24 12:42:27;;;;;;;14.10;9.07;;;;;;;-8.07;94.78;94066.47;5071156;28;20056;-89
2022/01/24 12:47:38;;;;;;;16.63;10.35;;;;;;;-8.06;95.46;94053.13;5071125;28;20134;-90
2022/01/24 12:50:10;;;;;;;22.50;11.23;;;;;;;-8.16;94.87;94034.53;5070851;28;20044;-89
2022/01/24 12:52:40;;;;;;;20.05;12.15;;;;;;;-8.12;95.72;94016.00;5070501;28;20138;-90
2022/01/24 12:55:25;;;;;;;17.02;11.32;;;;;;;-7.84;94.01;94082.78;5071281;28;20526;-90
2022/01/24 12:57:52;;;;;;;16.48;9.52;;;;;;;-8.43;94.62;93990.91;5071704;28;20044;-91
2022/01/24 13:00:32;;;;;;;;;;;;;;;;;;;;;
2022/01/24 13:03:02;;;;;;;14.80;8.10;;;;;;;-7.89;91.28;94086.38;5065233;28;20048;-89
2022/01/24 13:05:39;;;;;;;14.25;8.75;;;;;;;-8.14;90.80;94063.47;5071123;28;20049;-89
2022/01/24 13:08:23;;;;;;;15.32;8.77;;;;;;;-8.15;92.00;94061.06;5071549;28;20115;-90
2022/01/24 13:11:01;;;;;;;;;;;;;;;;;;;;;
2022/01/24 13:13:29;;;;;;;13.88;8.18;;;;;;;-7.75;95.38;94093.16;5070551;28;20049;-89
2022/01/24 13:21:29;;;;;;;16.35;10.75;;;;;;;-7.63;95.18;94081.78;5070903;28;20052;-89
2022/01/24 13:24:05;;;;;;;17.75;10.82;;;;;;;-7.62;94.27;94074.22;5070264;28;20040;-90
2022/01/24 13:26:40;;;;;;;18.17;11.77;;;;;;;-7.52;92.23;94092.84;5071998;28;20044;-89
2022/01/24 13:29:08;;;;;;;20.88;13.88;;;;;;;-7.67;90.74;94071.16;5070260;28;20052;-93
2022/01/24 13:31:37;;;;;;;31.92;22.27;;;;;;;-7.62;88.42;94095.88;5071591;28;20049;-89
2022/01/24 13:34:09;;;;;;;22.35;14.80;;;;;;;-7.56;88.65;94091.38;5070374;28;20048;-88
2022/01/24 13:36:38;;;;;;;17.10;10.27;;;;;;;-7.46;86.37;94096.69;5070425;28;20064;-88
2022/01/24 13:39:06;;;;;;;15.90;10.55;;;;;;;-7.83;86.25;94061.16;5070072;28;20431;-89
2022/01/24 13:41:40;;;;;;;15.05;10.13;;;;;;;-7.60;84.28;94107.38;5056441;28;20565;-85
2022/01/24 13:44:09;;;;;;;17.65;10.10;;;;;;;-7.44;84.07;94121.59;5050169;28;20053;-88
2022/01/24 13:46:39;;;;;;;13.50;9.27;;;;;;;-7.94;84.65;94017.59;5050397;28;20123;-90
2022/01/24 13:49:08;;;;;;;14.98;9.55;;;;;;;-7.46;84.36;94104.19;5054182;28;20107;-87
2022/01/24 13:51:49;;;;;;;15.70;9.60;;;;;;;-7.46;83.25;94121.66;5052618;28;20053;-88
2022/01/24 13:54:20;;;;;;;17.70;10.55;;;;;;;-7.45;84.97;94113.28;5052325;28;20076;-87
2022/01/24 13:56:50;;;;;;;18.88;10.18;;;;;;;-7.46;85.12;94101.69;5053960;28;20076;-87
2022/01/24 13:59:19;;;;;;;21.92;12.82;;;;;;;-7.28;84.72;94114.94;5063608;28;20048;-89
2022/01/24 14:02:02;;;;;;;20.20;11.90;;;;;;;-7.43;85.16;94103.22;5072585;28;20461;-88
2022/01/24 14:04:43;;;;;;;18.00;11.27;;;;;;;-7.28;86.78;94119.91;5070064;28;20052;-88
2022/01/24 14:07:25;;;;;;;18.60;12.10;;;;;;;-7.41;86.90;94127.22;5063239;28;20072;-91
2022/01/24 14:10:02;;;;;;;14.88;9.98;;;;;;;-7.52;86.02;94132.78;5058882;28;20041;-88
2022/01/24 14:12:50;;;;;;;17.52;10.93;;;;;;;-7.38;85.20;94143.72;5061482;28;20057;-88
2022/01/24 14:15:25;;;;;;;15.38;9.50;;;;;;;-7.49;84.21;94148.47;5034752;28;20054;-87
2022/01/24 14:20:45;;;;;;;16.15;10.75;;;;;;;-7.61;85.40;94149.88;5052521;28;20059;-85
2022/01/24 14:23:32;;;;;;;18.10;11.20;;;;;;;-7.69;88.21;94163.53;5054382;28;20041;-86
2022/01/24 14:26:03;;;;;;;15.05;9.90;;;;;;;-7.76;87.99;94144.78;5073796;28;20041;-89
2022/01/24 14:28:33;;;;;;;19.83;12.70;;;;;;;-7.79;87.99;94145.72;5074072;28;20049;-88
2022/01/24 14:31:13;;;;;;;17.73;11.35;;;;;;;-7.84;88.45;94142.66;5074616;28;20071;-87
2022/01/24 14:33:46;;;;;;;17.85;11.55;;;;;;;-8.10;89.24;94099.81;5074396;28;20067;-88
2022/01/24 14:36:20;;;;;;;16.23;10.70;;;;;;;-7.72;89.26;94148.72;5073969;28;20057;-88
2022/01/24 14:39:00;;;;;;;18.92;11.77;;;;;;;-7.70;90.00;94148.63;5073991;28;20071;-88
2022/01/24 14:41:34;;;;;;;20.60;11.13;;;;;;;-8.04;90.05;94128.66;5073933;28;20483;-87
2022/01/24 14:46:54;;;;;;;20.35;12.75;;;;;;;-7.81;92.77;94157.47;5073926;28;20055;-88
2022/01/24 14:49:25;;;;;;;17.38;11.38;;;;;;;-8.04;91.52;94151.09;5073741;28;20526;-87
2022/01/24 14:51:55;;;;;;;18.52;12.15;;;;;;;-7.95;91.35;94158.16;5071732;28;20161;-89
2022/01/24 14:54:25;;;;;;;19.35;12.60;;;;;;;-7.93;91.35;94158.03;5072505;28;20518;-88
2022/01/24 14:56:58;;;;;;;27.27;15.98;;;;;;;-7.88;91.90;94163.63;5072304;28;20040;-87
2022/01/24 14:59:33;;;;;;;31.33;18.13;;;;;;;-7.83;93.18;94165.91;5072672;28;20059;-87
2022/01/24 15:02:11;;;;;;;;;;;;;;;;;;;;;
2022/01/24 15:04:38;;;;;;;51.20;36.83;;;;;;;-7.91;95.17;94172.06;5067425;28;20059;-88
2022/01/24 15:07:19;;;;;;;33.15;21.13;;;;;;;-7.98;95.40;94172.41;5075527;28;20045;-87
2022/01/24 15:09:50;;;;;;;21.17;14.43;;;;;;;-8.17;96.65;94185.75;5054001;28;20049;-87
2022/01/24 15:12:37;;;;;;;21.17;13.48;;;;;;;-8.21;97.74;94180.13;5052513;28;20063;-88
2022/01/24 15:15:14;;;;;;;21.75;14.30;;;;;;;-7.99;98.58;94188.28;5052248;28;20111;-89
2022/01/24 15:23:55;;;;;;;26.95;15.57;;;;;;;-8.05;98.14;94187.69;5052331;28;20076;-87
2022/01/24 15:26:10;;;;;;;20.00;12.25;;;;;;;-8.15;100.00;94180.72;5052273;28;20068;-88
2022/01/24 15:28:39;;;;;;;26.02;15.95;;;;;;;-8.32;100.00;94190.56;5067454;28;20055;-88
2022/01/24 15:31:18;;;;;;;22.45;13.70;;;;;;;-8.58;100.00;94184.31;5072233;28;20048;-88
2022/01/24 15:33:45;;;;;;;39.85;21.20;;;;;;;-8.60;100.00;94194.34;5071893;28;20056;-88
2022/01/24 15:36:11;;;;;;;105.97;37.05;;;;;;;-8.79;100.00;94167.00;5071806;28;20052;-89
2022/01/24 15:38:40;;;;;;;84.05;32.40;;;;;;;-8.66;100.00;94191.34;5071826;28;20483;-87
2022/01/24 15:44:19;;;;;;;66.22;25.73;;;;;;;-8.70;100.00;94170.75;5071061;28;20055;-87
2022/01/24 15:46:56;;;;;;;136.20;40.17;;;;;;;-8.64;100.00;94180.44;5071563;28;20052;-89
2022/01/24 15:49:44;;;;;;;33.13;18.48;;;;;;;-8.95;100.00;94146.16;5071581;28;20094;-86
2022/01/24 15:52:11;;;;;;;38.83;21.17;;;;;;;-8.76;100.00;94181.78;5071473;28;20506;-89
2022/01/24 15:54:38;;;;;;;94.28;32.25;;;;;;;-8.75;100.00;94182.63;5071720;28;20300;-88
2022/01/24 15:59:49;;;;;;;124.38;59.30;;;;;;;-8.69;100.00;94192.28;5069278;28;20406;-89
2022/01/24 16:02:21;;;;;;;58.15;26.00;;;;;;;-8.66;100.00;94193.84;5071080;28;20056;-87
2022/01/24 16:04:58;;;;;;;;;;;;;;;;;;;;;
2022/01/24 16:07:39;;;;;;;;;;;;;;;;;;;;;
2022/01/24 16:10:12;;;;;;;77.45;35.35;;;;;;;-8.23;100.00;94194.34;5067180;28;20052;-89
2022/01/24 16:12:40;;;;;;;56.65;28.58;;;;;;;-8.21;100.00;94200.06;5069778;28;20060;-89
2022/01/24 16:15:09;;;;;;;78.00;35.70;;;;;;;-7.92;100.00;94202.09;5070843;28;20049;-90
2022/01/24 16:17:41;;;;;;;55.22;32.50;;;;;;;-8.14;100.00;94214.72;5071176;28;20487;-89
2022/01/24 16:20:20;;;;;;;56.42;28.13;;;;;;;-8.02;100.00;94213.38;5071114;28;20110;-88
2022/01/24 16:23:04;;;;;;;43.72;28.63;;;;;;;-8.53;100.00;94184.13;5070889;28;20154;-90
2022/01/24 16:25:37;;;;;;;45.47;25.60;;;;;;;-8.24;100.00;94217.63;5071103;28;20059;-90
2022/01/24 16:28:08;;;;;;;147.27;62.63;;;;;;;-8.33;100.00;94225.56;5071209;28;20048;-89
2022/01/24 16:30:52;;;;;;;;;;;;;;;;;;;;;
2022/01/24 16:33:22;;;;;;;108.43;50.58;;;;;;;-8.42;100.00;94235.94;5069231;28;20536;-91
2022/01/24 16:35:52;;;;;;;195.23;86.90;;;;;;;-8.76;100.00;94184.28;5070903;28;20060;-89
2022/01/24 16:38:27;;;;;;;165.73;69.55;;;;;;;-8.33;100.00;94236.31;5070986;28;20099;-89
2022/01/24 16:41:02;;;;;;;43.80;25.15;;;;;;;-8.42;100.00;94241.75;5071363;28;20048;-89
2022/01/24 16:49:06;;;;;;;60.88;33.33;;;;;;;-8.45;100.00;94245.16;5070892;28;20055;-90
2022/01/24 16:51:46;;;;;;;;;;;;;;;;;;;;;
2022/01/24 16:54:15;;;;;;;41.53;22.60;;;;;;;-8.41;100.00;94253.31;5069166;28;20054;-90
2022/01/24 16:56:43;;;;;;;42.58;24.42;;;;;;;-8.29;100.00;94256.13;5070508;28;20056;-90
2022/01/24 16:59:12;;;;;;;41.50;22.83;;;;;;;-8.47;100.00;94249.41;5071085;28;20135;-91
2022/01/24 17:01:42;;;;;;;55.42;33.22;;;;;;;-8.70;100.00;94228.06;5071602;28;20070;-91
2022/01/24 17:04:22;;;;;;;;;;;;;;;;;;;;;
2022/01/24 17:06:52;;;;;;;41.50;22.88;;;;;;;-8.75;100.00;94245.66;5063409;28;20048;-90
2022/01/24 17:09:24;;;;;;;99.05;45.45;;;;;;;-8.69;100.00;94266.19;5072108;28;20082;-90
2022/01/24 17:11:57;;;;;;;39.92;24.45;;;;;;;-8.75;100.00;94260.59;5071248;28;20066;-90
2022/01/24 17:14:30;;;;;;;109.97;58.03;;;;;;;-8.65;100.00;94272.66;5070772;28;20483;-90
2022/01/24 17:16:59;;;;;;;59.30;29.58;;;;;;;-8.82;100.00;94246.00;5072810;28;20135;-89
2022/01/24 17:19:27;;;;;;;87.45;45.53;;;;;;;-8.73;100.00;94260.56;5071845;28;20453;-90
2022/01/24 17:22:01;;;;;;;90.97;47.50;;;;;;;-8.72;100.00;94267.97;5071559;28;20052;-90
2022/01/24 17:24:29;;;;;;;93.97;42.10;;;;;;;-8.91;100.00;94267.94;5074180;28;20040;-91
2022/01/24 17:26:56;;;;;;;54.38;31.65;;;;;;;-8.90;100.00;94277.03;5075453;28;20094;-90
2022/01/24 17:29:24;;;;;;;44.90;23.25;;;;;;;-8.88;100.00;94276.97;5075428;28;20073;-90
2022/01/24 17:31:54;;;;;;;38.60;21.90;;;;;;;-8.89;100.00;94275.34;5074821;28;20090;-90
2022/01/24 17:34:30;;;;;;;67.05;35.28;;;;;;;-9.11;100.00;94246.38;5077391;28;20118;-90
2022/01/24 17:37:09;;;;;;;61.53;31.08;;;;;;;-8.78;100.00;94289.81;5077640;28;20319;-90
2022/01/24 17:40:03;;;;;;;55.88;29.48;;;;;;;-8.84;100.00;94285.09;5089228;28;20048;-91
2022/01/24 17:46:23;;;;;;;60.95;26.52;;;;;;;-9.54;100.00;94199.22;4919473;29;20059;-90
2022/01/24 17:49:15;;;;;;;54.03;27.67;;;;;;;-9.91;100.00;94153.50;5014493;28;20062;-90
2022/01/24 17:55:23;;;;;;;;;;;;;;;;;;;;;
2022/01/24 17:57:52;;;;;;;41.22;17.95;;;;;;;-9.31;100.00;94272.09;4973089;28;20048;-91
2022/01/24 18:00:24;;;;;;;42.88;19.25;;;;;;;-9.29;100.00;94285.28;5010494;28;20428;-91
2022/01/24 18:02:51;;;;;;;45.20;21.55;;;;;;;-9.26;100.00;94283.47;5032367;28;20056;-90
2022/01/24 18:05:25;;;;;;;43.80;20.00;;;;;;;-9.29;100.00;94285.28;5076029;28;20044;-92
2022/01/24 18:07:59;;;;;;;55.05;24.00;;;;;;;-9.28;100.00;94291.88;5076656;28;20059;-91
2022/01/24 18:10:29;;;;;;;44.33;19.80;;;;;;;-9.58;100.00;94255.72;5075016;28;20056;-91
2022/01/24 18:12:55;;;;;;;37.83;17.73;;;;;;;-9.44;100.00;94280.03;5075863;28;20056;-90
2022/01/24 18:15:23;;;;;;;34.15;17.23;;;;;;;-9.51;100.00;94286.16;5075223;28;20102;-91
2022/01/24 18:17:50;;;;;;;45.17;20.30;;;;;;;-9.53;100.00;94286.19;5075496;28;20048;-91
2022/01/24 18:20:17;;;;;;;55.28;22.25;;;;;;;-9.63;100.00;94276.69;5074806;28;20055;-92
2022/01/24 18:22:44;;;;;;;52.80;21.55;;;;;;;-9.55;100.00;94292.09;5074605;28;20106;-94
2022/01/24 18:25:36;;;;;;;99.63;41.55;;;;;;;-9.70;100.00;94278.59;5074376;28;20040;-91